Huvudsida
METAR-TAF:

METAR-TAF

Flygplatser :

Windhoek, Namibia

latitud: 22-29S, longitud: 017-28E, höjd: 1715 m

Aktuellt väderrapport

Denna rapport gjordes för 1 timme och 19 minuter sedan, klockan 07:00 UTC
Vind 4 kt från syd/sydost
Temperatur 10°C
Fuktighet 57%
Tryck 1031 hPa
Sikt 10 km eller mer
Inga moln under 1 500 m eller inga cumulonimbus

METAR: FYWH 250700Z 15004KT CAVOK 10/02 Q1031 NOSIG

Tid: 10:19 (08:19 UTC)

Väderprognos

Denna rapport gjordes för 4 timmar och 19 minuter sedan, klockan 04:00 UTC
Prognos gäller från 25 kl. 06 UTC till 26 kl. 06 UTC
Vind 5 kt från väst/sydväst
Sikt 10 km eller mer
Inga moln under 1 500 m eller inga cumulonimbus
Blir
från 25 kl. 08 UTC till 25 kl. 10 UTC
Vind 16 kt från ost

TAF: FYWH 250400Z 2506/2606 24005KT CAVOK BECMG 2508/2510 08016KT

Aktuella väderrapporter och prognoser från 4000 flygplatser (METAR- och TAF-rapporter).

De tillgängliga stationerna syns som gula och röda prickar på kartan.

För musen över prickarna för att se namnen på stationerna.

Klicka sedan för att få väderrapporter och prognoser.

För att ändra kartan: Klicka på de gröna knapparna med ett svart kors på för att zooma in; den gröna knappen med ett streck på för att zooma ut; eller på de gröna pilarna för angränsande kartor.


METAR-TAF: